createdAt,value
2022-09-15T00:00:09.485Z,97314.25
2022-09-15T00:02:45.651Z,97301.19
2022-09-15T00:05:14.630Z,97305.44
2022-09-15T00:07:46.237Z,97301.25
2022-09-15T00:10:27.953Z,97302.56
2022-09-15T00:13:12.159Z,97298.50
2022-09-15T00:15:41.946Z,97300.03
2022-09-15T00:18:13.380Z,97290.00
2022-09-15T00:20:45.255Z,97294.31
2022-09-15T00:23:18.115Z,97288.56
2022-09-15T00:25:58.451Z,97283.06
2022-09-15T00:28:31.746Z,97284.88
2022-09-15T00:31:12.848Z,97291.88
2022-09-15T00:33:40.814Z,97285.47
2022-09-15T00:36:12.401Z,97283.28
2022-09-15T00:38:50.458Z,97284.88
2022-09-15T00:41:24.590Z,97285.53
2022-09-15T00:44:04.395Z,97281.47
2022-09-15T00:46:40.027Z,97280.03
2022-09-15T00:49:19.422Z,97280.09
2022-09-15T00:51:55.224Z,97283.13
2022-09-15T00:54:46.966Z,97280.31
2022-09-15T00:57:35.911Z,97281.81
2022-09-15T01:00:12.421Z,97283.91
2022-09-15T01:02:46.159Z,97284.28
2022-09-15T01:05:31.453Z,97287.59
2022-09-15T01:08:14.681Z,97290.47
2022-09-15T01:10:48.255Z,97283.69
2022-09-15T01:13:17.534Z,97284.97
2022-09-15T01:16:09.870Z,97278.88
2022-09-15T01:19:13.532Z,97279.84
2022-09-15T01:22:24.339Z,97279.28
2022-09-15T01:25:09.224Z,97281.47
2022-09-15T01:28:23.070Z,97277.00
2022-09-15T01:30:59.952Z,97266.97
2022-09-15T01:33:51.880Z,97269.63
2022-09-15T01:36:25.152Z,97258.75
2022-09-15T01:39:08.355Z,97256.44
2022-09-15T01:41:45.284Z,97246.06
2022-09-15T01:44:20.457Z,97251.69
2022-09-15T01:46:53.455Z,97245.25
2022-09-15T01:49:31.620Z,97247.41
2022-09-15T01:51:59.233Z,97245.53
2022-09-15T01:54:33.204Z,97240.75
2022-09-15T01:57:09.171Z,97246.19
2022-09-15T01:59:37.481Z,97245.09
2022-09-15T02:02:10.247Z,97247.69
2022-09-15T02:04:52.812Z,97243.38
2022-09-15T02:07:48.136Z,97254.50
2022-09-15T02:10:37.789Z,97252.31
2022-09-15T02:13:21.606Z,97254.03
2022-09-15T02:16:04.924Z,97255.47
2022-09-15T02:19:20.736Z,97253.53
2022-09-15T02:25:22.135Z,97256.84
2022-09-15T02:27:52.203Z,97254.78
2022-09-15T02:30:25.398Z,97254.63
2022-09-15T02:33:04.190Z,97247.75
2022-09-15T02:35:38.948Z,97246.97
2022-09-15T02:38:13.648Z,97248.19
2022-09-15T02:40:50.824Z,97243.81
2022-09-15T02:43:27.819Z,97240.72
2022-09-15T02:46:02.306Z,97240.56
2022-09-15T02:48:38.656Z,97240.63
2022-09-15T02:51:10.591Z,97236.81
2022-09-15T02:53:44.104Z,97230.56
2022-09-15T02:56:13.901Z,97234.13
2022-09-15T02:58:45.866Z,97225.63
2022-09-15T03:01:19.465Z,97226.03
2022-09-15T03:03:46.801Z,97225.91
2022-09-15T03:06:18.528Z,97229.94
2022-09-15T03:09:05.186Z,97228.03
2022-09-15T03:11:41.230Z,97224.63
2022-09-15T03:14:26.506Z,97222.03
2022-09-15T03:17:02.553Z,97223.16
2022-09-15T03:19:32.691Z,97227.81
2022-09-15T03:22:05.418Z,97231.03
2022-09-15T03:24:42.364Z,97233.78
2022-09-15T03:27:15.234Z,97224.59
2022-09-15T03:29:51.324Z,97228.50
2022-09-15T03:32:29.879Z,97230.75
2022-09-15T03:35:02.253Z,97227.22
2022-09-15T03:37:32.936Z,97232.56
2022-09-15T03:40:05.849Z,97230.69
2022-09-15T03:42:33.367Z,97219.44
2022-09-15T03:45:03.915Z,97229.09
2022-09-15T03:47:31.319Z,97230.81
2022-09-15T03:49:58.912Z,97230.97
2022-09-15T03:52:28.282Z,97234.59
2022-09-15T03:54:58.556Z,97234.72
2022-09-15T03:57:26.167Z,97230.91
2022-09-15T03:59:58.475Z,97233.34
2022-09-15T04:02:30.044Z,97227.25
2022-09-15T04:05:02.311Z,97234.88
2022-09-15T04:07:32.945Z,97237.19
2022-09-15T04:10:02.916Z,97230.47
2022-09-15T04:12:46.189Z,97235.44
2022-09-15T04:15:16.105Z,97233.72
2022-09-15T04:17:47.352Z,97232.34
2022-09-15T04:20:21.687Z,97240.09
2022-09-15T04:22:49.893Z,97235.09
2022-09-15T04:25:21.905Z,97234.22
2022-09-15T04:28:02.780Z,97231.53
2022-09-15T04:30:30.039Z,97230.47
2022-09-15T04:33:05.937Z,97235.84
2022-09-15T04:35:42.508Z,97231.72
2022-09-15T04:38:15.649Z,97232.91
2022-09-15T04:40:48.931Z,97231.31
2022-09-15T04:43:15.846Z,97234.56
2022-09-15T04:45:42.361Z,97221.78
2022-09-15T04:48:08.984Z,97226.44
2022-09-15T04:50:35.557Z,97228.09
2022-09-15T04:53:02.234Z,97231.81
2022-09-15T04:55:29.052Z,97220.72
2022-09-15T04:57:55.568Z,97222.88
2022-09-15T05:00:22.149Z,97230.28
2022-09-15T05:02:48.782Z,97239.78
2022-09-15T05:05:15.280Z,97236.88
2022-09-15T05:07:41.857Z,97241.06
2022-09-15T05:10:08.992Z,97239.75
2022-09-15T05:12:35.618Z,97248.88
2022-09-15T05:15:06.045Z,97247.47
2022-09-15T05:17:33.250Z,97247.72
2022-09-15T05:20:00.494Z,97250.75
2022-09-15T05:22:28.020Z,97248.88
2022-09-15T05:24:54.775Z,97251.63
2022-09-15T05:27:21.264Z,97249.59
2022-09-15T05:29:47.838Z,97253.78
2022-09-15T05:32:14.976Z,97252.31
2022-09-15T05:34:41.536Z,97249.97
2022-09-15T05:37:09.390Z,97260.00
2022-09-15T05:39:35.921Z,97256.56
2022-09-15T05:42:02.625Z,97250.03
2022-09-15T05:44:29.491Z,97247.41
2022-09-15T05:46:56.187Z,97256.47
2022-09-15T05:49:23.136Z,97251.53
2022-09-15T05:51:49.795Z,97250.78
2022-09-15T05:54:16.395Z,97246.53
2022-09-15T05:56:42.943Z,97256.88
2022-09-15T05:59:09.539Z,97256.31
2022-09-15T06:01:36.295Z,97257.78
2022-09-15T06:04:03.080Z,97260.03
2022-09-15T06:06:31.071Z,97260.66
2022-09-15T06:08:59.483Z,97258.97
2022-09-15T06:11:30.795Z,97263.53
2022-09-15T06:14:01.590Z,97265.31
2022-09-15T06:16:31.722Z,97269.28
2022-09-15T06:18:59.215Z,97258.44
2022-09-15T06:21:27.714Z,97255.63
2022-09-15T06:24:06.954Z,97263.53
2022-09-15T06:26:34.099Z,97261.56
2022-09-15T06:29:02.702Z,97262.28
2022-09-15T06:31:33.848Z,97267.91
2022-09-15T06:34:01.742Z,97281.44
2022-09-15T06:36:29.524Z,97284.56
2022-09-15T06:38:56.871Z,97280.69
2022-09-15T06:41:23.710Z,97284.56
2022-09-15T06:43:50.251Z,97299.25
2022-09-15T06:46:19.546Z,97291.56
2022-09-15T06:48:48.562Z,97289.88
2022-09-15T06:51:17.025Z,97301.81
2022-09-15T06:53:44.134Z,97301.19
2022-09-15T06:56:23.680Z,97308.41
2022-09-15T06:58:50.557Z,97303.41
2022-09-15T07:01:28.592Z,97314.50
2022-09-15T07:03:58.204Z,97311.69
2022-09-15T07:06:25.519Z,97308.63
2022-09-15T07:08:53.849Z,97319.47
2022-09-15T07:11:20.777Z,97307.34
2022-09-15T07:13:49.153Z,97304.88
2022-09-15T07:16:16.180Z,97311.38
2022-09-15T07:18:43.774Z,97310.41
2022-09-15T07:21:17.218Z,97305.03
2022-09-15T07:23:44.255Z,97298.25
2022-09-15T07:26:16.036Z,97303.31
2022-09-15T07:28:44.271Z,97309.31
2022-09-15T07:31:14.032Z,97308.59
2022-09-15T07:33:41.042Z,97307.88
2022-09-15T07:36:08.562Z,97314.56
2022-09-15T07:38:38.419Z,97316.16
2022-09-15T07:41:10.884Z,97317.28
2022-09-15T07:43:38.165Z,97318.28
2022-09-15T07:46:05.184Z,97322.34
2022-09-15T07:48:32.159Z,97320.22
2022-09-15T07:51:01.626Z,97317.91
2022-09-15T07:53:29.352Z,97323.94
2022-09-15T07:55:56.322Z,97327.41
2022-09-15T07:58:23.315Z,97330.84
2022-09-15T08:00:50.088Z,97329.25
2022-09-15T08:03:16.794Z,97335.25
2022-09-15T08:05:45.563Z,97342.41
2022-09-15T08:08:12.586Z,97344.94
2022-09-15T08:10:41.170Z,97340.78
2022-09-15T08:13:08.147Z,97355.53
2022-09-15T08:15:37.776Z,97359.22
2022-09-15T08:18:05.406Z,97354.53
2022-09-15T08:20:31.909Z,97353.81
2022-09-15T08:22:58.590Z,97362.78
2022-09-15T08:25:25.242Z,97369.63
2022-09-15T08:27:54.009Z,97371.56
2022-09-15T08:30:21.248Z,97373.84
2022-09-15T08:32:48.713Z,97372.13
2022-09-15T08:35:15.968Z,97374.81
2022-09-15T08:37:42.716Z,97377.25
2022-09-15T08:40:32.867Z,97372.41
2022-09-15T08:43:05.899Z,97378.13
2022-09-15T08:45:41.932Z,97377.38
2022-09-15T08:48:09.970Z,97377.00
2022-09-15T08:50:40.422Z,97384.06
2022-09-15T08:53:27.475Z,97381.69
2022-09-15T08:56:00.027Z,97383.56
2022-09-15T08:58:29.835Z,97372.88
2022-09-15T09:01:03.886Z,97375.19
2022-09-15T09:03:39.576Z,97379.09
2022-09-15T09:06:40.483Z,97379.63
2022-09-15T09:09:22.139Z,97389.34
2022-09-15T09:11:51.978Z,97386.44
2022-09-15T09:14:36.378Z,97382.53
2022-09-15T09:17:36.409Z,97391.78
2022-09-15T09:20:34.281Z,97393.63
2022-09-15T09:23:02.262Z,97402.97
2022-09-15T09:25:28.888Z,97401.03
2022-09-15T09:27:58.196Z,97406.47
2022-09-15T09:30:27.631Z,97404.78
2022-09-15T09:33:04.396Z,97401.31
2022-09-15T09:35:41.366Z,97402.91
2022-09-15T09:38:09.542Z,97396.63
2022-09-15T09:40:41.153Z,97395.53
2022-09-15T09:43:08.151Z,97400.31
2022-09-15T09:45:34.803Z,97402.81
2022-09-15T09:48:05.793Z,97405.94
2022-09-15T09:50:39.081Z,97409.44
2022-09-15T09:53:27.258Z,97414.97
2022-09-15T09:55:55.527Z,97411.63
2022-09-15T09:58:24.927Z,97407.16
2022-09-15T10:00:52.830Z,97412.56
2022-09-15T10:03:21.764Z,97410.66
2022-09-15T10:06:07.628Z,97407.38
2022-09-15T10:08:36.432Z,97410.03
2022-09-15T10:11:05.823Z,97407.00
2022-09-15T10:13:34.602Z,97408.59
2022-09-15T10:16:02.505Z,97403.16
2022-09-15T10:18:35.713Z,97414.03
2022-09-15T10:21:04.374Z,97410.28
2022-09-15T10:23:32.413Z,97407.38
2022-09-15T10:26:33.741Z,97406.13
2022-09-15T10:29:12.595Z,97407.28
2022-09-15T10:31:39.896Z,97413.31
2022-09-15T10:34:30.498Z,97414.31
2022-09-15T10:37:14.049Z,97415.88
2022-09-15T10:39:52.347Z,97424.41
2022-09-15T10:42:37.887Z,97428.13
2022-09-15T10:45:12.408Z,97431.06
2022-09-15T10:47:43.300Z,97443.13
2022-09-15T10:50:43.873Z,97448.16
2022-09-15T10:53:17.420Z,97441.41
2022-09-15T10:56:13.932Z,97446.63
2022-09-15T10:59:06.978Z,97449.97
2022-09-15T11:01:48.965Z,97445.66
2022-09-15T11:04:25.216Z,97455.69
2022-09-15T11:07:24.315Z,97442.38
2022-09-15T11:09:55.874Z,97448.19
2022-09-15T11:12:36.358Z,97451.16
2022-09-15T11:15:09.829Z,97457.38
2022-09-15T11:18:01.345Z,97462.41
2022-09-15T11:21:10.986Z,97461.84
2022-09-15T11:23:45.874Z,97473.56
2022-09-15T11:26:30.058Z,97473.44
2022-09-15T11:29:11.913Z,97481.25
2022-09-15T11:31:41.137Z,97474.94
2022-09-15T11:34:20.160Z,97477.38
2022-09-15T11:36:52.136Z,97474.09
2022-09-15T11:39:29.064Z,97476.59
2022-09-15T11:42:01.014Z,97488.59
2022-09-15T11:44:39.884Z,97493.59
2022-09-15T11:47:26.305Z,97511.00
2022-09-15T11:50:07.883Z,97508.63
2022-09-15T11:52:51.920Z,97508.69
2022-09-15T11:55:30.403Z,97516.88
2022-09-15T11:58:15.512Z,97523.38
2022-09-15T12:00:49.119Z,97523.13
2022-09-15T12:03:31.162Z,97522.72
2022-09-15T12:06:02.364Z,97528.97
2022-09-15T12:08:46.960Z,97534.63
2022-09-15T12:11:18.828Z,97537.09
2022-09-15T12:13:45.655Z,97538.88
2022-09-15T12:16:12.630Z,97552.88
2022-09-15T12:19:06.968Z,97547.63
2022-09-15T12:21:38.750Z,97555.88
2022-09-15T12:24:33.884Z,97557.78
2022-09-15T12:27:01.125Z,97554.91
2022-09-15T12:29:27.732Z,97559.34
2022-09-15T12:32:20.499Z,97562.81
2022-09-15T12:35:20.203Z,97566.41
2022-09-15T12:38:06.911Z,97563.00
2022-09-15T12:40:36.226Z,97564.84
2022-09-15T12:43:04.512Z,97569.91
2022-09-15T12:45:33.760Z,97570.47
2022-09-15T12:48:05.288Z,97579.34
2022-09-15T12:50:35.404Z,97583.88
2022-09-15T12:53:12.992Z,97584.94
2022-09-15T12:56:01.721Z,97585.97
2022-09-15T12:58:48.322Z,97585.84
2022-09-15T13:01:18.625Z,97585.13
2022-09-15T13:03:45.473Z,97582.41
2022-09-15T13:06:24.956Z,97593.22
2022-09-15T13:08:58.455Z,97589.47
2022-09-15T13:11:37.547Z,97584.28
2022-09-15T13:14:04.406Z,97591.16
2022-09-15T13:16:40.019Z,97590.78
2022-09-15T13:19:27.190Z,97584.59
2022-09-15T13:22:02.259Z,97595.13
2022-09-15T13:25:16.692Z,97597.47
2022-09-15T13:27:45.620Z,97593.56
2022-09-15T13:30:24.360Z,97598.50
2022-09-15T13:33:00.962Z,97599.88
2022-09-15T13:35:45.721Z,97583.09
2022-09-15T13:38:34.134Z,97592.06
2022-09-15T13:41:31.052Z,97591.50
2022-09-15T13:44:26.217Z,97585.94
2022-09-15T13:47:18.737Z,97588.69
2022-09-15T13:50:06.931Z,97584.44
2022-09-15T13:53:12.887Z,97579.63
2022-09-15T13:55:42.237Z,97583.22
2022-09-15T14:01:04.726Z,97584.53
2022-09-15T14:03:44.729Z,97586.88
2022-09-15T14:06:33.734Z,97582.09
2022-09-15T14:09:09.694Z,97582.72
2022-09-15T14:11:37.773Z,97581.34
2022-09-15T14:14:08.587Z,97587.16
2022-09-15T14:16:39.146Z,97581.44
2022-09-15T14:19:38.888Z,97593.25
2022-09-15T14:22:17.548Z,97590.69
2022-09-15T14:24:44.664Z,97592.47
2022-09-15T14:27:11.738Z,97584.25
2022-09-15T14:29:42.012Z,97575.97
2022-09-15T14:32:15.094Z,97580.56
2022-09-15T14:34:42.382Z,97572.03
2022-09-15T14:37:17.499Z,97580.06
2022-09-15T14:39:56.466Z,97576.56
2022-09-15T14:42:32.329Z,97574.41
2022-09-15T14:48:00.174Z,97586.84
2022-09-15T14:50:31.890Z,97591.56
2022-09-15T14:53:10.883Z,97583.25
2022-09-15T14:56:00.619Z,97585.50
2022-09-15T14:58:35.809Z,97590.69
2022-09-15T15:01:15.651Z,97593.50
2022-09-15T15:03:48.269Z,97595.72
2022-09-15T15:06:28.666Z,97598.34
2022-09-15T15:09:00.677Z,97593.97
2022-09-15T15:11:28.048Z,97594.63
2022-09-15T15:13:56.506Z,97603.78
2022-09-15T15:16:26.136Z,97605.53
2022-09-15T15:18:53.261Z,97598.84
2022-09-15T15:21:43.657Z,97606.00
2022-09-15T15:24:13.035Z,97601.78
2022-09-15T15:26:42.185Z,97609.31
2022-09-15T15:29:44.506Z,97608.56
2022-09-15T15:32:22.400Z,97601.66
2022-09-15T15:34:54.648Z,97605.34
2022-09-15T15:37:28.252Z,97602.41
2022-09-15T15:40:00.013Z,97608.41
2022-09-15T15:42:28.792Z,97605.63
2022-09-15T15:44:59.580Z,97616.03
2022-09-15T15:47:29.378Z,97612.91
2022-09-15T15:50:13.613Z,97606.66
2022-09-15T15:52:41.929Z,97616.75
2022-09-15T15:55:13.276Z,97613.78
2022-09-15T15:57:40.013Z,97611.75
2022-09-15T16:00:36.045Z,97607.41
2022-09-15T16:03:02.622Z,97611.66
2022-09-15T16:05:29.507Z,97600.91
2022-09-15T16:07:57.055Z,97614.31
2022-09-15T16:10:24.905Z,97604.63
2022-09-15T16:12:52.031Z,97609.16
2022-09-15T16:15:20.593Z,97614.47
2022-09-15T16:17:48.178Z,97606.34
2022-09-15T16:20:16.159Z,97611.56
2022-09-15T16:22:43.204Z,97605.22
2022-09-15T16:25:18.995Z,97606.50
2022-09-15T16:27:45.597Z,97601.75
2022-09-15T16:30:12.441Z,97613.13
2022-09-15T16:32:40.157Z,97615.50
2022-09-15T16:35:31.659Z,97621.56
2022-09-15T16:37:58.170Z,97622.13
2022-09-15T16:40:24.751Z,97623.31
2022-09-15T16:42:51.557Z,97625.13
2022-09-15T16:45:27.169Z,97622.50
2022-09-15T16:47:53.737Z,97624.75
2022-09-15T16:50:20.283Z,97620.09
2022-09-15T16:52:46.857Z,97627.25
2022-09-15T16:55:19.865Z,97635.50
2022-09-15T16:57:46.466Z,97630.59
2022-09-15T17:00:13.646Z,97634.81
2022-09-15T17:02:40.238Z,97638.03
2022-09-15T17:05:15.557Z,97638.13
2022-09-15T17:07:42.069Z,97640.03
2022-09-15T17:10:08.828Z,97642.59
2022-09-15T17:12:36.983Z,97647.06
2022-09-15T17:15:15.131Z,97645.84
2022-09-15T17:17:41.654Z,97650.72
2022-09-15T17:20:09.372Z,97651.81
2022-09-15T17:22:36.310Z,97656.53
2022-09-15T17:25:13.710Z,97650.53
2022-09-15T17:27:40.262Z,97657.22
2022-09-15T17:30:07.832Z,97659.44
2022-09-15T17:32:35.061Z,97661.19
2022-09-15T17:35:01.846Z,97657.59
2022-09-15T17:37:28.409Z,97654.44
2022-09-15T17:39:58.834Z,97658.28
2022-09-15T17:42:25.806Z,97656.41
2022-09-15T17:44:53.301Z,97655.38
2022-09-15T17:47:19.967Z,97653.69
2022-09-15T17:49:46.535Z,97656.16
2022-09-15T17:52:13.029Z,97666.97
2022-09-15T17:54:39.622Z,97665.53
2022-09-15T17:57:07.815Z,97657.00
2022-09-15T17:59:34.862Z,97662.31
2022-09-15T18:02:01.601Z,97662.44
2022-09-15T18:04:29.494Z,97668.47
2022-09-15T18:06:56.079Z,97666.78
2022-09-15T18:09:22.604Z,97663.03
2022-09-15T18:11:49.133Z,97665.16
2022-09-15T18:14:15.808Z,97671.16
2022-09-15T18:16:43.197Z,97672.97
2022-09-15T18:19:10.285Z,97677.66
2022-09-15T18:21:36.828Z,97676.38
2022-09-15T18:24:03.707Z,97679.19
2022-09-15T18:26:30.319Z,97676.59
2022-09-15T18:28:56.968Z,97683.59
2022-09-15T18:31:23.728Z,97682.22
2022-09-15T18:33:50.343Z,97685.03
2022-09-15T18:36:16.861Z,97684.63
2022-09-15T18:38:43.717Z,97692.78
2022-09-15T18:41:11.720Z,97690.31
2022-09-15T18:43:38.347Z,97696.44
2022-09-15T18:46:11.207Z,97691.50
2022-09-15T18:48:37.860Z,97695.88
2022-09-15T18:51:08.563Z,97699.53
2022-09-15T18:53:36.508Z,97692.25
2022-09-15T18:56:13.525Z,97691.88
2022-09-15T18:58:40.354Z,97694.03
2022-09-15T19:01:07.370Z,97689.38
2022-09-15T19:03:34.309Z,97690.13
2022-09-15T19:06:05.259Z,97699.47
2022-09-15T19:08:33.257Z,97692.00
2022-09-15T19:11:00.905Z,97692.19
2022-09-15T19:13:28.848Z,97695.09
2022-09-15T19:15:56.350Z,97701.00
2022-09-15T19:18:23.431Z,97699.84
2022-09-15T19:20:50.007Z,97702.88
2022-09-15T19:23:16.690Z,97704.63
2022-09-15T19:25:45.457Z,97700.28
2022-09-15T19:28:12.155Z,97709.13
2022-09-15T19:30:39.126Z,97708.25
2022-09-15T19:33:05.856Z,97702.69
2022-09-15T19:35:32.463Z,97700.28
2022-09-15T19:37:59.009Z,97709.53
2022-09-15T19:40:25.607Z,97709.84
2022-09-15T19:42:52.290Z,97712.75
2022-09-15T19:45:19.145Z,97717.13
2022-09-15T19:47:45.651Z,97709.97
2022-09-15T19:50:12.263Z,97705.78
2022-09-15T19:52:39.032Z,97707.03
2022-09-15T19:55:07.412Z,97711.53
2022-09-15T19:57:33.992Z,97719.31
2022-09-15T20:00:00.497Z,97713.28
2022-09-15T20:02:27.202Z,97712.03
2022-09-15T20:04:53.955Z,97713.09
2022-09-15T20:07:20.572Z,97714.66
2022-09-15T20:09:47.512Z,97718.78
2022-09-15T20:12:14.128Z,97717.44
2022-09-15T20:14:41.223Z,97721.81
2022-09-15T20:17:07.828Z,97726.28
2022-09-15T20:19:34.636Z,97729.97
2022-09-15T20:22:01.378Z,97732.19
2022-09-15T20:24:27.952Z,97730.50
2022-09-15T20:26:54.617Z,97734.09
2022-09-15T20:29:21.235Z,97737.84
2022-09-15T20:31:48.194Z,97730.44
2022-09-15T20:34:15.115Z,97728.59
2022-09-15T20:36:42.034Z,97731.09
2022-09-15T20:39:12.850Z,97736.25
2022-09-15T20:41:40.506Z,97737.28
2022-09-15T20:44:10.873Z,97732.47
2022-09-15T20:46:37.462Z,97738.88
2022-09-15T20:49:04.701Z,97731.59
2022-09-15T20:51:33.944Z,97729.63
2022-09-15T20:54:03.488Z,97725.56
2022-09-15T20:56:31.090Z,97725.66
2022-09-15T20:58:59.141Z,97731.97
2022-09-15T21:01:27.638Z,97725.78
2022-09-15T21:03:55.337Z,97734.59
2022-09-15T21:06:24.215Z,97721.44
2022-09-15T21:08:51.183Z,97735.59
2022-09-15T21:11:19.424Z,97733.03
2022-09-15T21:13:48.128Z,97728.78
2022-09-15T21:16:20.595Z,97747.81
2022-09-15T21:18:48.083Z,97742.84
2022-09-15T21:21:22.905Z,97738.06
2022-09-15T21:23:51.715Z,97736.25
2022-09-15T21:26:20.416Z,97735.16
2022-09-15T21:28:47.365Z,97735.78
2022-09-15T21:31:19.080Z,97739.06
2022-09-15T21:33:47.191Z,97742.34
2022-09-15T21:36:22.225Z,97749.44
2022-09-15T21:38:50.578Z,97754.84
2022-09-15T21:41:21.457Z,97753.28
2022-09-15T21:43:48.784Z,97755.16
2022-09-15T21:46:18.284Z,97755.25
2022-09-15T21:48:47.312Z,97752.69
2022-09-15T21:51:15.655Z,97754.56
2022-09-15T21:53:42.987Z,97752.00
2022-09-15T21:56:12.629Z,97756.16
2022-09-15T21:58:42.988Z,97753.72
2022-09-15T22:01:14.117Z,97756.19
2022-09-15T22:03:44.628Z,97755.69
2022-09-15T22:06:12.419Z,97752.53
2022-09-15T22:08:39.475Z,97750.19
2022-09-15T22:11:06.884Z,97748.38
2022-09-15T22:13:35.773Z,97750.34
2022-09-15T22:16:05.349Z,97747.06
2022-09-15T22:18:32.301Z,97756.94
2022-09-15T22:21:14.840Z,97752.66
2022-09-15T22:23:42.919Z,97756.91
2022-09-15T22:26:21.003Z,97759.94
2022-09-15T22:28:47.808Z,97756.19
2022-09-15T22:31:16.410Z,97758.84
2022-09-15T22:33:43.161Z,97753.97
2022-09-15T22:36:14.027Z,97765.41
2022-09-15T22:38:40.722Z,97757.75
2022-09-15T22:41:09.412Z,97754.69
2022-09-15T22:43:36.771Z,97760.06
2022-09-15T22:46:03.809Z,97752.28
2022-09-15T22:48:30.472Z,97760.06
2022-09-15T22:50:57.171Z,97757.13
2022-09-15T22:53:24.164Z,97753.75
2022-09-15T22:55:51.560Z,97756.91
2022-09-15T22:58:18.123Z,97749.72
2022-09-15T23:00:45.005Z,97756.66
2022-09-15T23:03:12.043Z,97758.84
2022-09-15T23:05:38.667Z,97761.16
2022-09-15T23:08:05.283Z,97765.78
2022-09-15T23:10:32.726Z,97758.59
2022-09-15T23:12:59.801Z,97764.44
2022-09-15T23:15:26.567Z,97764.91
2022-09-15T23:17:53.148Z,97765.88
2022-09-15T23:20:19.752Z,97757.84
2022-09-15T23:22:46.353Z,97763.31
2022-09-15T23:25:13.495Z,97757.72
2022-09-15T23:27:40.532Z,97758.28
2022-09-15T23:30:07.599Z,97760.22
2022-09-15T23:32:34.194Z,97761.19
2022-09-15T23:35:00.836Z,97757.09
2022-09-15T23:37:27.451Z,97757.09
2022-09-15T23:39:54.370Z,97761.69
2022-09-15T23:42:20.947Z,97762.66
2022-09-15T23:44:47.556Z,97755.94
2022-09-15T23:47:14.145Z,97759.50
2022-09-15T23:49:41.611Z,97757.66
2022-09-15T23:52:08.163Z,97760.69
2022-09-15T23:54:34.741Z,97755.53
2022-09-15T23:57:05.345Z,97766.84
2022-09-15T23:59:31.913Z,97758.19
